RYR9TG LEMD-LEPA
Flight info
| Callsign | RYR9TG |
|---|---|
| Flight time | N/A |
| Altitude | 25000 |
| Route | NANDO T257 LASPO M871 GODOX |
| Aircraft | B738/M-SADE2E3GIJ4RWZ/LB1D1 |
Departure
| Time | 2026-05-06 18:48 |
|---|---|
| Airport | Adolfo Suárez Madrid–Barajas Airport (LEMD) |
Arrival
| Time | N/A |
|---|---|
| Airport | Palma de Mallorca Airport (LEPA) |
| Time | Latitude | Longitude | Altitude | Speed | Heading |
|---|---|---|---|---|---|
| 2026-05-06 18:13 | 40.47313 | -3.57017 | 1985 ft | 0 kts | 244° |
| 2026-05-06 18:28 | 40.47319 | -3.57004 | 1984 ft | 2 kts | 244° |
| 2026-05-06 18:29 | 40.47325 | -3.56986 | 1984 ft | 2 kts | 253° |
| 2026-05-06 18:29 | 40.47327 | -3.56966 | 1983 ft | 2 kts | 272° |
| 2026-05-06 18:29 | 40.47324 | -3.56946 | 1983 ft | 2 kts | 288° |
| 2026-05-06 18:29 | 40.47318 | -3.56928 | 1982 ft | 2 kts | 305° |
| 2026-05-06 18:30 | 40.47309 | -3.56915 | 1982 ft | 0 kts | 320° |
| 2026-05-06 18:30 | 40.47304 | -3.56910 | 1982 ft | 1 kts | 322° |
| 2026-05-06 18:30 | 40.47303 | -3.56910 | 1982 ft | 0 kts | 322° |
| 2026-05-06 18:37 | 40.47308 | -3.56914 | 1982 ft | 1 kts | 324° |
| 2026-05-06 18:37 | 40.47310 | -3.56915 | 1982 ft | 0 kts | 340° |
| 2026-05-06 18:37 | 40.47315 | -3.56916 | 1982 ft | 0 kts | 338° |
| 2026-05-06 18:38 | 40.47330 | -3.56931 | 1982 ft | 8 kts | 321° |
| 2026-05-06 18:38 | 40.47403 | -3.57010 | 1984 ft | 13 kts | 316° |
| 2026-05-06 18:38 | 40.47456 | -3.57102 | 1986 ft | 11 kts | 303° |
| 2026-05-06 18:38 | 40.47531 | -3.57216 | 1988 ft | 22 kts | 317° |
| 2026-05-06 18:39 | 40.47649 | -3.57340 | 1990 ft | 20 kts | 322° |
| 2026-05-06 18:39 | 40.47757 | -3.57451 | 1994 ft | 18 kts | 322° |
| 2026-05-06 18:39 | 40.47851 | -3.57463 | 1994 ft | 8 kts | 51° |
| 2026-05-06 18:40 | 40.47898 | -3.57407 | 1993 ft | 7 kts | 358° |
| 2026-05-06 18:40 | 40.47990 | -3.57488 | 1995 ft | 23 kts | 322° |
| 2026-05-06 18:40 | 40.48117 | -3.57614 | 1999 ft | 21 kts | 321° |
| 2026-05-06 18:40 | 40.48228 | -3.57730 | 2001 ft | 19 kts | 321° |
| 2026-05-06 18:41 | 40.48329 | -3.57834 | 2004 ft | 16 kts | 321° |
| 2026-05-06 18:41 | 40.48435 | -3.57929 | 2006 ft | 18 kts | 328° |
| 2026-05-06 18:41 | 40.48537 | -3.58012 | 2009 ft | 16 kts | 327° |
| 2026-05-06 18:41 | 40.48636 | -3.58056 | 2010 ft | 14 kts | 357° |
| 2026-05-06 18:42 | 40.48732 | -3.58057 | 2010 ft | 11 kts | 360° |
| 2026-05-06 18:42 | 40.48813 | -3.58056 | 2010 ft | 11 kts | 2° |
| 2026-05-06 18:42 | 40.48859 | -3.57957 | 2007 ft | 20 kts | 88° |
| 2026-05-06 18:42 | 40.48858 | -3.57751 | 2003 ft | 23 kts | 89° |
| 2026-05-06 18:43 | 40.48860 | -3.57530 | 1997 ft | 25 kts | 90° |
| 2026-05-06 18:43 | 40.48860 | -3.57290 | 1991 ft | 26 kts | 91° |
| 2026-05-06 18:43 | 40.48858 | -3.57035 | 1984 ft | 28 kts | 89° |
| 2026-05-06 18:43 | 40.48860 | -3.56762 | 1974 ft | 31 kts | 89° |
| 2026-05-06 18:44 | 40.48862 | -3.56510 | 1966 ft | 26 kts | 90° |
| 2026-05-06 18:44 | 40.48867 | -3.56288 | 1958 ft | 21 kts | 70° |
| 2026-05-06 18:44 | 40.48986 | -3.56245 | 1957 ft | 18 kts | 359° |
| 2026-05-06 18:44 | 40.49107 | -3.56248 | 1958 ft | 16 kts | 359° |
| 2026-05-06 18:45 | 40.49218 | -3.56248 | 1959 ft | 15 kts | 1° |
| 2026-05-06 18:45 | 40.49345 | -3.56247 | 1959 ft | 18 kts | 359° |
| 2026-05-06 18:45 | 40.49468 | -3.56248 | 1960 ft | 16 kts | 359° |
| 2026-05-06 18:45 | 40.49589 | -3.56250 | 1960 ft | 21 kts | 359° |
| 2026-05-06 18:46 | 40.49761 | -3.56251 | 1959 ft | 27 kts | 359° |
| 2026-05-06 18:46 | 40.49916 | -3.56247 | 1958 ft | 19 kts | 23° |
| 2026-05-06 18:46 | 40.49941 | -3.56106 | 1955 ft | 4 kts | 90° |
| 2026-05-06 18:46 | 40.49942 | -3.56090 | 1955 ft | 0 kts | 89° |
| 2026-05-06 18:47 | 40.49942 | -3.56089 | 1955 ft | 0 kts | 89° |
| 2026-05-06 18:47 | 40.49942 | -3.56076 | 1955 ft | 4 kts | 87° |
| 2026-05-06 18:47 | 40.49958 | -3.56002 | 1952 ft | 12 kts | 58° |
| 2026-05-06 18:47 | 40.50046 | -3.55921 | 1950 ft | 20 kts | 12° |
| 2026-05-06 18:48 | 40.50444 | -3.55923 | 1946 ft | 100 kts | 359° |
| 2026-05-06 18:48 | 40.51423 | -3.55925 | 1947 ft | 175 kts | 359° |
| 2026-05-06 18:48 | 40.52685 | -3.55928 | 2794 ft | 182 kts | 359° |
| 2026-05-06 18:48 | 40.53875 | -3.55989 | 3734 ft | 172 kts | 358° |
| 2026-05-06 18:49 | 40.55124 | -3.56000 | 4207 ft | 184 kts | 8° |
| 2026-05-06 18:49 | 40.56369 | -3.55468 | 4606 ft | 199 kts | 28° |
| 2026-05-06 18:49 | 40.57668 | -3.54586 | 4907 ft | 219 kts | 25° |
| 2026-05-06 18:49 | 40.59121 | -3.53787 | 5483 ft | 231 kts | 24° |
| 2026-05-06 18:50 | 40.60534 | -3.52743 | 6143 ft | 239 kts | 38° |
| 2026-05-06 18:50 | 40.61813 | -3.51298 | 6875 ft | 245 kts | 44° |
| 2026-05-06 18:50 | 40.63067 | -3.49775 | 7648 ft | 249 kts | 43° |
| 2026-05-06 18:50 | 40.64369 | -3.48252 | 8441 ft | 253 kts | 42° |
| 2026-05-06 18:51 | 40.65707 | -3.46736 | 9244 ft | 257 kts | 41° |
| 2026-05-06 18:51 | 40.67084 | -3.45195 | 10068 ft | 260 kts | 41° |
| 2026-05-06 18:51 | 40.68464 | -3.43655 | 10884 ft | 264 kts | 41° |
| 2026-05-06 18:51 | 40.69862 | -3.42091 | 11729 ft | 267 kts | 41° |
| 2026-05-06 18:52 | 40.71299 | -3.40470 | 12510 ft | 273 kts | 43° |
| 2026-05-06 18:52 | 40.72562 | -3.38594 | 12870 ft | 274 kts | 59° |
| 2026-05-06 18:52 | 40.73208 | -3.36243 | 12952 ft | 272 kts | 84° |
| 2026-05-06 18:52 | 40.73151 | -3.33744 | 12958 ft | 281 kts | 102° |
| 2026-05-06 18:53 | 40.72545 | -3.31149 | 12941 ft | 308 kts | 119° |
| 2026-05-06 18:53 | 40.71261 | -3.28725 | 12917 ft | 340 kts | 131° |
| 2026-05-06 18:53 | 40.69649 | -3.26324 | 12948 ft | 354 kts | 134° |
| 2026-05-06 18:53 | 40.67963 | -3.23893 | 12948 ft | 357 kts | 133° |
| 2026-05-06 18:54 | 40.66315 | -3.21465 | 12937 ft | 357 kts | 133° |
| 2026-05-06 18:54 | 40.64638 | -3.18928 | 13485 ft | 368 kts | 132° |
| 2026-05-06 18:54 | 40.62983 | -3.16378 | 14518 ft | 368 kts | 131° |
| 2026-05-06 18:54 | 40.61303 | -3.13765 | 15327 ft | 376 kts | 131° |
| 2026-05-06 18:55 | 40.59610 | -3.11121 | 16149 ft | 382 kts | 131° |
| 2026-05-06 18:55 | 40.57883 | -3.08419 | 16968 ft | 388 kts | 131° |
| 2026-05-06 18:55 | 40.56132 | -3.05679 | 17759 ft | 394 kts | 131° |
| 2026-05-06 18:55 | 40.54339 | -3.02873 | 18528 ft | 399 kts | 131° |
| 2026-05-06 18:56 | 40.52561 | -3.00090 | 19290 ft | 404 kts | 131° |
| 2026-05-06 18:56 | 40.50710 | -2.97198 | 20033 ft | 410 kts | 132° |
| 2026-05-06 18:56 | 40.48857 | -2.94309 | 20736 ft | 416 kts | 132° |
| 2026-05-06 18:56 | 40.46992 | -2.91407 | 21416 ft | 421 kts | 132° |
| 2026-05-06 18:57 | 40.45084 | -2.88441 | 22135 ft | 426 kts | 132° |
| 2026-05-06 18:57 | 40.43142 | -2.85427 | 22799 ft | 431 kts | 132° |
| 2026-05-06 18:57 | 40.41201 | -2.82418 | 23440 ft | 436 kts | 133° |
| 2026-05-06 18:57 | 40.39227 | -2.79360 | 24068 ft | 441 kts | 133° |
| 2026-05-06 18:58 | 40.37226 | -2.76267 | 24754 ft | 444 kts | 133° |
| 2026-05-06 18:58 | 40.35209 | -2.73153 | 25478 ft | 446 kts | 133° |
| 2026-05-06 18:58 | 40.33187 | -2.70034 | 25882 ft | 449 kts | 133° |
| 2026-05-06 18:58 | 40.31141 | -2.66881 | 25930 ft | 445 kts | 133° |
| 2026-05-06 18:59 | 40.29142 | -2.63802 | 25930 ft | 441 kts | 133° |
| 2026-05-06 18:59 | 40.27156 | -2.60744 | 25935 ft | 442 kts | 133° |
| 2026-05-06 18:59 | 40.25135 | -2.57636 | 25929 ft | 441 kts | 133° |